sensor_id;sensor_type;location;lat;lon;timestamp;temperature;humidity
20560;DHT22;10438;51.454;6.718;2023-02-28T00:00:30;1.60;99.90
20560;DHT22;10438;51.454;6.718;2023-02-28T00:02:56;1.60;99.90
20560;DHT22;10438;51.454;6.718;2023-02-28T00:05:24;1.60;99.90
20560;DHT22;10438;51.454;6.718;2023-02-28T00:07:50;1.50;99.90
20560;DHT22;10438;51.454;6.718;2023-02-28T00:10:20;1.50;99.90
20560;DHT22;10438;51.454;6.718;2023-02-28T00:12:48;1.50;99.90
20560;DHT22;10438;51.454;6.718;2023-02-28T00:15:14;1.50;99.90
20560;DHT22;10438;51.454;6.718;2023-02-28T00:17:39;1.50;99.90
20560;DHT22;10438;51.454;6.718;2023-02-28T00:20:06;1.50;99.90
20560;DHT22;10438;51.454;6.718;2023-02-28T00:22:34;1.50;99.90
20560;DHT22;10438;51.454;6.718;2023-02-28T00:24:59;1.50;99.90
20560;DHT22;10438;51.454;6.718;2023-02-28T00:27:25;1.50;99.90
20560;DHT22;10438;51.454;6.718;2023-02-28T00:29:51;1.50;99.90
20560;DHT22;10438;51.454;6.718;2023-02-28T00:32:16;1.40;99.90
20560;DHT22;10438;51.454;6.718;2023-02-28T00:34:43;1.40;99.90
20560;DHT22;10438;51.454;6.718;2023-02-28T00:37:10;1.40;99.90
20560;DHT22;10438;51.454;6.718;2023-02-28T00:39:37;1.40;99.90
20560;DHT22;10438;51.454;6.718;2023-02-28T00:42:04;1.40;99.90
20560;DHT22;10438;51.454;6.718;2023-02-28T00:44:30;1.50;99.90
20560;DHT22;10438;51.454;6.718;2023-02-28T00:46:56;1.50;99.90
20560;DHT22;10438;51.454;6.718;2023-02-28T00:49:23;1.50;99.90
20560;DHT22;10438;51.454;6.718;2023-02-28T00:51:49;1.50;99.90
20560;DHT22;10438;51.454;6.718;2023-02-28T00:54:14;1.50;99.90
20560;DHT22;10438;51.454;6.718;2023-02-28T00:56:40;1.50;99.90
20560;DHT22;10438;51.454;6.718;2023-02-28T00:59:05;1.40;99.90
20560;DHT22;10438;51.454;6.718;2023-02-28T01:01:31;1.40;99.90
20560;DHT22;10438;51.454;6.718;2023-02-28T01:03:57;1.40;99.90
20560;DHT22;10438;51.454;6.718;2023-02-28T01:06:22;1.40;99.90
20560;DHT22;10438;51.454;6.718;2023-02-28T01:08:48;1.40;99.90
20560;DHT22;10438;51.454;6.718;2023-02-28T01:11:16;1.40;99.90
20560;DHT22;10438;51.454;6.718;2023-02-28T01:13:42;1.40;99.90
20560;DHT22;10438;51.454;6.718;2023-02-28T01:16:08;1.40;99.90
20560;DHT22;10438;51.454;6.718;2023-02-28T01:18:34;1.40;99.90
20560;DHT22;10438;51.454;6.718;2023-02-28T01:21:08;1.40;99.90
20560;DHT22;10438;51.454;6.718;2023-02-28T01:23:35;1.40;99.90
20560;DHT22;10438;51.454;6.718;2023-02-28T01:26:18;1.30;99.90
20560;DHT22;10438;51.454;6.718;2023-02-28T01:28:44;1.30;99.90
20560;DHT22;10438;51.454;6.718;2023-02-28T01:31:11;1.30;99.90
20560;DHT22;10438;51.454;6.718;2023-02-28T01:33:37;1.30;99.90
20560;DHT22;10438;51.454;6.718;2023-02-28T01:36:06;1.30;99.90
20560;DHT22;10438;51.454;6.718;2023-02-28T01:38:33;1.30;99.90
20560;DHT22;10438;51.454;6.718;2023-02-28T01:40:59;1.20;99.90
20560;DHT22;10438;51.454;6.718;2023-02-28T01:43:27;1.30;99.90
20560;DHT22;10438;51.454;6.718;2023-02-28T01:45:54;1.20;99.90
20560;DHT22;10438;51.454;6.718;2023-02-28T01:48:31;1.20;99.90
20560;DHT22;10438;51.454;6.718;2023-02-28T01:51:00;1.20;99.90
20560;DHT22;10438;51.454;6.718;2023-02-28T01:53:33;1.20;99.90
20560;DHT22;10438;51.454;6.718;2023-02-28T01:56:00;1.30;99.90
20560;DHT22;10438;51.454;6.718;2023-02-28T01:58:28;1.30;99.90
20560;DHT22;10438;51.454;6.718;2023-02-28T02:00:54;1.30;99.90
20560;DHT22;10438;51.454;6.718;2023-02-28T02:03:20;1.20;99.90
20560;DHT22;10438;51.454;6.718;2023-02-28T02:05:46;1.20;99.90
20560;DHT22;10438;51.454;6.718;2023-02-28T02:08:22;1.10;99.90
20560;DHT22;10438;51.454;6.718;2023-02-28T02:10:51;1.10;99.90
20560;DHT22;10438;51.454;6.718;2023-02-28T02:21:47;1.00;99.90
20560;DHT22;10438;51.454;6.718;2023-02-28T02:24:24;1.00;99.90
20560;DHT22;10438;51.454;6.718;2023-02-28T02:27:20;1.00;99.90
20560;DHT22;10438;51.454;6.718;2023-02-28T02:30:00;1.00;99.90
20560;DHT22;10438;51.454;6.718;2023-02-28T02:35:26;1.00;99.90
20560;DHT22;10438;51.454;6.718;2023-02-28T02:38:18;1.00;99.90
20560;DHT22;10438;51.454;6.718;2023-02-28T02:41:14;1.00;99.90
20560;DHT22;10438;51.454;6.718;2023-02-28T02:43:50;1.00;99.90
20560;DHT22;10438;51.454;6.718;2023-02-28T02:46:27;1.00;99.90
20560;DHT22;10438;51.454;6.718;2023-02-28T02:48:56;1.00;99.90
20560;DHT22;10438;51.454;6.718;2023-02-28T02:51:23;1.00;99.90
20560;DHT22;10438;51.454;6.718;2023-02-28T02:54:05;1.00;99.90
20560;DHT22;10438;51.454;6.718;2023-02-28T02:56:33;1.00;99.90
20560;DHT22;10438;51.454;6.718;2023-02-28T02:59:03;0.90;99.90
20560;DHT22;10438;51.454;6.718;2023-02-28T03:01:30;0.80;99.90
20560;DHT22;10438;51.454;6.718;2023-02-28T03:04:04;0.70;99.90
20560;DHT22;10438;51.454;6.718;2023-02-28T03:06:31;0.70;99.90
20560;DHT22;10438;51.454;6.718;2023-02-28T03:08:56;0.60;99.90
20560;DHT22;10438;51.454;6.718;2023-02-28T03:11:22;0.50;99.90
20560;DHT22;10438;51.454;6.718;2023-02-28T03:14:14;0.40;99.90
20560;DHT22;10438;51.454;6.718;2023-02-28T03:17:18;0.40;99.90
20560;DHT22;10438;51.454;6.718;2023-02-28T03:20:07;0.40;99.90
20560;DHT22;10438;51.454;6.718;2023-02-28T03:25:33;0.30;99.90
20560;DHT22;10438;51.454;6.718;2023-02-28T03:30:49;0.20;99.90
20560;DHT22;10438;51.454;6.718;2023-02-28T03:36:23;0.20;99.90
20560;DHT22;10438;51.454;6.718;2023-02-28T03:38:57;0.20;99.90
20560;DHT22;10438;51.454;6.718;2023-02-28T03:41:29;0.20;99.90
20560;DHT22;10438;51.454;6.718;2023-02-28T03:44:06;0.20;99.90
20560;DHT22;10438;51.454;6.718;2023-02-28T03:46:37;0.10;99.90
20560;DHT22;10438;51.454;6.718;2023-02-28T03:49:20;0.10;99.90
20560;DHT22;10438;51.454;6.718;2023-02-28T03:51:48;0.10;99.90
20560;DHT22;10438;51.454;6.718;2023-02-28T03:54:30;0.10;99.90
20560;DHT22;10438;51.454;6.718;2023-02-28T03:57:04;0.00;99.90
20560;DHT22;10438;51.454;6.718;2023-02-28T03:59:35;0.10;99.90
20560;DHT22;10438;51.454;6.718;2023-02-28T04:02:02;0.10;99.90
20560;DHT22;10438;51.454;6.718;2023-02-28T04:04:28;0.00;99.90
20560;DHT22;10438;51.454;6.718;2023-02-28T04:07:01;0.00;99.90
20560;DHT22;10438;51.454;6.718;2023-02-28T04:09:27;0.00;99.90
20560;DHT22;10438;51.454;6.718;2023-02-28T04:11:53;0.00;99.90
20560;DHT22;10438;51.454;6.718;2023-02-28T04:14:20;0.00;99.90
20560;DHT22;10438;51.454;6.718;2023-02-28T04:16:46;0.00;99.90
20560;DHT22;10438;51.454;6.718;2023-02-28T04:19:13;0.00;99.90
20560;DHT22;10438;51.454;6.718;2023-02-28T04:21:48;0.00;99.90
20560;DHT22;10438;51.454;6.718;2023-02-28T04:24:17;0.00;99.90
20560;DHT22;10438;51.454;6.718;2023-02-28T04:26:45;0.00;99.90
20560;DHT22;10438;51.454;6.718;2023-02-28T04:29:12;0.00;99.90
20560;DHT22;10438;51.454;6.718;2023-02-28T04:31:39;0.00;99.90
20560;DHT22;10438;51.454;6.718;2023-02-28T04:34:05;0.00;99.90
20560;DHT22;10438;51.454;6.718;2023-02-28T04:36:30;0.00;99.90
20560;DHT22;10438;51.454;6.718;2023-02-28T04:38:56;0.00;99.90
20560;DHT22;10438;51.454;6.718;2023-02-28T04:41:23;0.00;99.90
20560;DHT22;10438;51.454;6.718;2023-02-28T04:43:50;0.00;99.90
20560;DHT22;10438;51.454;6.718;2023-02-28T04:46:16;0.00;99.90
20560;DHT22;10438;51.454;6.718;2023-02-28T04:48:43;0.00;99.90
20560;DHT22;10438;51.454;6.718;2023-02-28T04:51:11;0.00;99.90
20560;DHT22;10438;51.454;6.718;2023-02-28T04:53:38;0.00;99.90
20560;DHT22;10438;51.454;6.718;2023-02-28T04:56:05;0.00;99.90
20560;DHT22;10438;51.454;6.718;2023-02-28T04:58:32;0.00;99.90
20560;DHT22;10438;51.454;6.718;2023-02-28T05:01:25;0.00;99.90
20560;DHT22;10438;51.454;6.718;2023-02-28T05:03:53;0.00;99.90
20560;DHT22;10438;51.454;6.718;2023-02-28T05:06:20;0.00;99.90
20560;DHT22;10438;51.454;6.718;2023-02-28T05:08:46;0.00;99.90
20560;DHT22;10438;51.454;6.718;2023-02-28T05:11:19;0.00;99.90
20560;DHT22;10438;51.454;6.718;2023-02-28T05:13:45;0.00;99.90
20560;DHT22;10438;51.454;6.718;2023-02-28T05:16:11;0.00;99.90
20560;DHT22;10438;51.454;6.718;2023-02-28T05:18:37;0.00;99.90
20560;DHT22;10438;51.454;6.718;2023-02-28T05:21:03;0.00;99.90
20560;DHT22;10438;51.454;6.718;2023-02-28T05:23:29;-0.10;99.90
20560;DHT22;10438;51.454;6.718;2023-02-28T05:25:55;-0.10;99.90
20560;DHT22;10438;51.454;6.718;2023-02-28T05:28:21;-0.10;99.90
20560;DHT22;10438;51.454;6.718;2023-02-28T05:30:47;-0.10;99.90
20560;DHT22;10438;51.454;6.718;2023-02-28T05:33:13;-0.10;99.90
20560;DHT22;10438;51.454;6.718;2023-02-28T05:35:39;-0.10;99.90
20560;DHT22;10438;51.454;6.718;2023-02-28T05:38:05;-0.10;99.90
20560;DHT22;10438;51.454;6.718;2023-02-28T05:40:31;-0.10;99.90
20560;DHT22;10438;51.454;6.718;2023-02-28T05:42:56;-0.20;99.90
20560;DHT22;10438;51.454;6.718;2023-02-28T05:45:22;-0.10;99.90
20560;DHT22;10438;51.454;6.718;2023-02-28T05:47:47;-0.10;99.90
20560;DHT22;10438;51.454;6.718;2023-02-28T05:50:13;-0.20;99.90
20560;DHT22;10438;51.454;6.718;2023-02-28T05:52:38;-0.10;99.90
20560;DHT22;10438;51.454;6.718;2023-02-28T05:55:04;-0.20;99.90
20560;DHT22;10438;51.454;6.718;2023-02-28T05:57:30;-0.20;99.90
20560;DHT22;10438;51.454;6.718;2023-02-28T05:59:56;-0.20;99.90
20560;DHT22;10438;51.454;6.718;2023-02-28T06:02:21;-0.20;99.90
20560;DHT22;10438;51.454;6.718;2023-02-28T06:04:47;-0.20;99.90
20560;DHT22;10438;51.454;6.718;2023-02-28T06:07:12;-0.20;99.90
20560;DHT22;10438;51.454;6.718;2023-02-28T06:09:38;-0.20;99.90
20560;DHT22;10438;51.454;6.718;2023-02-28T06:12:05;-0.20;99.90
20560;DHT22;10438;51.454;6.718;2023-02-28T06:14:33;-0.20;99.90
20560;DHT22;10438;51.454;6.718;2023-02-28T06:16:59;-0.30;99.90
20560;DHT22;10438;51.454;6.718;2023-02-28T06:19:25;-0.30;99.90
20560;DHT22;10438;51.454;6.718;2023-02-28T06:21:52;-0.30;99.90
20560;DHT22;10438;51.454;6.718;2023-02-28T06:24:22;-0.30;99.90
20560;DHT22;10438;51.454;6.718;2023-02-28T06:26:49;-0.30;99.90
20560;DHT22;10438;51.454;6.718;2023-02-28T06:29:14;-0.30;99.90
20560;DHT22;10438;51.454;6.718;2023-02-28T06:31:45;-0.20;99.90
20560;DHT22;10438;51.454;6.718;2023-02-28T06:34:11;-0.20;99.90
20560;DHT22;10438;51.454;6.718;2023-02-28T06:36:41;-0.20;99.90
20560;DHT22;10438;51.454;6.718;2023-02-28T06:39:08;-0.10;99.90
20560;DHT22;10438;51.454;6.718;2023-02-28T06:41:34;-0.10;99.90
20560;DHT22;10438;51.454;6.718;2023-02-28T06:44:13;-0.10;99.90
20560;DHT22;10438;51.454;6.718;2023-02-28T06:46:40;-0.10;99.90
20560;DHT22;10438;51.454;6.718;2023-02-28T06:49:07;-0.10;99.90
20560;DHT22;10438;51.454;6.718;2023-02-28T06:51:38;-0.10;99.90
20560;DHT22;10438;51.454;6.718;2023-02-28T06:54:05;-0.10;99.90
20560;DHT22;10438;51.454;6.718;2023-02-28T06:56:30;0.00;99.90
20560;DHT22;10438;51.454;6.718;2023-02-28T06:58:56;0.00;99.90
20560;DHT22;10438;51.454;6.718;2023-02-28T07:01:22;0.00;99.90
20560;DHT22;10438;51.454;6.718;2023-02-28T07:03:53;-0.10;99.90
20560;DHT22;10438;51.454;6.718;2023-02-28T07:06:20;0.00;99.90
20560;DHT22;10438;51.454;6.718;2023-02-28T07:08:48;0.00;99.90
20560;DHT22;10438;51.454;6.718;2023-02-28T07:11:13;0.00;99.90
20560;DHT22;10438;51.454;6.718;2023-02-28T07:13:39;0.00;99.90
20560;DHT22;10438;51.454;6.718;2023-02-28T07:16:06;0.00;99.90
20560;DHT22;10438;51.454;6.718;2023-02-28T07:18:34;0.00;99.90
20560;DHT22;10438;51.454;6.718;2023-02-28T07:21:02;0.00;99.90
20560;DHT22;10438;51.454;6.718;2023-02-28T07:23:28;0.00;99.90
20560;DHT22;10438;51.454;6.718;2023-02-28T07:25:53;0.00;99.90
20560;DHT22;10438;51.454;6.718;2023-02-28T07:28:19;0.10;99.90
20560;DHT22;10438;51.454;6.718;2023-02-28T07:30:44;0.10;99.90
20560;DHT22;10438;51.454;6.718;2023-02-28T07:33:10;0.10;99.90
20560;DHT22;10438;51.454;6.718;2023-02-28T07:35:35;0.10;99.90
20560;DHT22;10438;51.454;6.718;2023-02-28T07:38:02;0.20;99.90
20560;DHT22;10438;51.454;6.718;2023-02-28T07:40:28;0.20;99.30
20560;DHT22;10438;51.454;6.718;2023-02-28T07:42:54;0.20;98.70
20560;DHT22;10438;51.454;6.718;2023-02-28T07:45:19;0.30;99.70
20560;DHT22;10438;51.454;6.718;2023-02-28T07:47:45;0.30;99.10
20560;DHT22;10438;51.454;6.718;2023-02-28T07:50:14;0.40;97.80
20560;DHT22;10438;51.454;6.718;2023-02-28T07:52:40;0.40;98.40
20560;DHT22;10438;51.454;6.718;2023-02-28T07:55:07;0.40;97.00
20560;DHT22;10438;51.454;6.718;2023-02-28T07:57:33;0.40;97.80
20560;DHT22;10438;51.454;6.718;2023-02-28T07:59:59;0.50;98.00
20560;DHT22;10438;51.454;6.718;2023-02-28T08:02:24;0.60;96.90
20560;DHT22;10438;51.454;6.718;2023-02-28T08:04:50;0.60;96.10
20560;DHT22;10438;51.454;6.718;2023-02-28T08:07:17;0.70;94.60
20560;DHT22;10438;51.454;6.718;2023-02-28T08:09:43;0.70;95.80
20560;DHT22;10438;51.454;6.718;2023-02-28T08:12:10;0.70;94.50
20560;DHT22;10438;51.454;6.718;2023-02-28T08:14:35;0.70;95.70
20560;DHT22;10438;51.454;6.718;2023-02-28T08:17:01;0.80;94.90
20560;DHT22;10438;51.454;6.718;2023-02-28T08:19:28;0.80;94.10
20560;DHT22;10438;51.454;6.718;2023-02-28T08:21:54;0.80;94.40
20560;DHT22;10438;51.454;6.718;2023-02-28T08:24:20;0.90;94.30
20560;DHT22;10438;51.454;6.718;2023-02-28T08:26:45;1.00;92.10
20560;DHT22;10438;51.454;6.718;2023-02-28T08:29:11;1.00;93.60
20560;DHT22;10438;51.454;6.718;2023-02-28T08:31:37;1.10;93.50
20560;DHT22;10438;51.454;6.718;2023-02-28T08:34:07;1.10;89.00
20560;DHT22;10438;51.454;6.718;2023-02-28T08:36:32;1.20;88.10
20560;DHT22;10438;51.454;6.718;2023-02-28T08:38:58;1.20;89.10
20560;DHT22;10438;51.454;6.718;2023-02-28T08:41:25;1.30;87.10
20560;DHT22;10438;51.454;6.718;2023-02-28T08:43:50;1.30;83.80
20560;DHT22;10438;51.454;6.718;2023-02-28T08:46:16;1.30;86.20
20560;DHT22;10438;51.454;6.718;2023-02-28T08:48:41;1.40;82.40
20560;DHT22;10438;51.454;6.718;2023-02-28T08:51:09;1.50;80.40
20560;DHT22;10438;51.454;6.718;2023-02-28T08:53:38;1.60;75.50
20560;DHT22;10438;51.454;6.718;2023-02-28T08:56:08;1.70;68.80
20560;DHT22;10438;51.454;6.718;2023-02-28T08:58:35;1.70;66.20
20560;DHT22;10438;51.454;6.718;2023-02-28T09:01:06;1.80;61.70
20560;DHT22;10438;51.454;6.718;2023-02-28T09:03:32;2.00;54.90
20560;DHT22;10438;51.454;6.718;2023-02-28T09:05:59;2.10;51.80
20560;DHT22;10438;51.454;6.718;2023-02-28T09:08:27;2.30;52.20
20560;DHT22;10438;51.454;6.718;2023-02-28T09:10:53;2.50;51.40
20560;DHT22;10438;51.454;6.718;2023-02-28T09:13:19;2.90;40.40
20560;DHT22;10438;51.454;6.718;2023-02-28T09:15:45;3.40;44.00
20560;DHT22;10438;51.454;6.718;2023-02-28T09:18:11;3.80;28.30
20560;DHT22;10438;51.454;6.718;2023-02-28T09:20:41;4.00;23.80
20560;DHT22;10438;51.454;6.718;2023-02-28T09:23:09;4.20;17.70
20560;DHT22;10438;51.454;6.718;2023-02-28T09:25:35;4.50;10.00
20560;DHT22;10438;51.454;6.718;2023-02-28T09:28:00;4.60;1.00
20560;DHT22;10438;51.454;6.718;2023-02-28T09:30:26;4.40;1.00
20560;DHT22;10438;51.454;6.718;2023-02-28T09:32:52;4.50;1.00
20560;DHT22;10438;51.454;6.718;2023-02-28T09:35:19;4.60;1.00
20560;DHT22;10438;51.454;6.718;2023-02-28T09:37:46;4.90;1.00
20560;DHT22;10438;51.454;6.718;2023-02-28T09:40:13;5.30;1.00
20560;DHT22;10438;51.454;6.718;2023-02-28T09:42:40;5.70;1.00
20560;DHT22;10438;51.454;6.718;2023-02-28T09:47:52;6.20;1.00
20560;DHT22;10438;51.454;6.718;2023-02-28T09:50:33;6.30;1.00
20560;DHT22;10438;51.454;6.718;2023-02-28T09:53:03;6.30;1.00
20560;DHT22;10438;51.454;6.718;2023-02-28T09:55:39;6.30;1.00
20560;DHT22;10438;51.454;6.718;2023-02-28T09:58:20;6.30;1.00
20560;DHT22;10438;51.454;6.718;2023-02-28T10:00:56;6.60;1.00
20560;DHT22;10438;51.454;6.718;2023-02-28T10:03:39;6.90;1.00
20560;DHT22;10438;51.454;6.718;2023-02-28T10:09:00;6.60;1.00
20560;DHT22;10438;51.454;6.718;2023-02-28T10:11:27;6.60;1.00
20560;DHT22;10438;51.454;6.718;2023-02-28T10:14:06;6.10;1.00
20560;DHT22;10438;51.454;6.718;2023-02-28T10:16:44;5.90;1.00
20560;DHT22;10438;51.454;6.718;2023-02-28T10:19:38;5.80;1.00
20560;DHT22;10438;51.454;6.718;2023-02-28T10:22:34;6.40;1.00
20560;DHT22;10438;51.454;6.718;2023-02-28T10:25:01;6.50;1.00
20560;DHT22;10438;51.454;6.718;2023-02-28T10:27:36;6.60;1.00
20560;DHT22;10438;51.454;6.718;2023-02-28T10:30:02;6.60;1.00
20560;DHT22;10438;51.454;6.718;2023-02-28T10:32:34;6.50;1.00
20560;DHT22;10438;51.454;6.718;2023-02-28T10:37:37;6.20;1.00
20560;DHT22;10438;51.454;6.718;2023-02-28T10:40:05;5.90;1.00
20560;DHT22;10438;51.454;6.718;2023-02-28T10:42:31;5.80;1.00
20560;DHT22;10438;51.454;6.718;2023-02-28T10:45:12;5.30;1.00
20560;DHT22;10438;51.454;6.718;2023-02-28T10:47:49;5.80;1.00
20560;DHT22;10438;51.454;6.718;2023-02-28T11:01:15;4.60;1.00
20560;DHT22;10438;51.454;6.718;2023-02-28T11:03:41;4.40;1.00
20560;DHT22;10438;51.454;6.718;2023-02-28T11:06:19;4.30;1.00
20560;DHT22;10438;51.454;6.718;2023-02-28T11:08:57;4.40;1.00
20560;DHT22;10438;51.454;6.718;2023-02-28T11:11:26;4.50;1.00
20560;DHT22;10438;51.454;6.718;2023-02-28T11:13:55;4.60;1.00
20560;DHT22;10438;51.454;6.718;2023-02-28T11:16:22;4.60;1.00
20560;DHT22;10438;51.454;6.718;2023-02-28T11:18:57;4.40;1.00
20560;DHT22;10438;51.454;6.718;2023-02-28T11:21:35;4.50;1.00
20560;DHT22;10438;51.454;6.718;2023-02-28T11:24:23;5.20;1.00
20560;DHT22;10438;51.454;6.718;2023-02-28T11:26:50;5.60;1.00
20560;DHT22;10438;51.454;6.718;2023-02-28T11:29:22;6.10;1.00
20560;DHT22;10438;51.454;6.718;2023-02-28T11:34:35;6.30;1.00
20560;DHT22;10438;51.454;6.718;2023-02-28T11:37:01;6.60;1.00
20560;DHT22;10438;51.454;6.718;2023-02-28T11:39:31;6.50;1.00
20560;DHT22;10438;51.454;6.718;2023-02-28T11:47:44;7.20;1.00
20560;DHT22;10438;51.454;6.718;2023-02-28T11:52:54;7.60;1.00
20560;DHT22;10438;51.454;6.718;2023-02-28T11:55:35;8.00;1.00
20560;DHT22;10438;51.454;6.718;2023-02-28T12:04:26;8.40;1.00
20560;DHT22;10438;51.454;6.718;2023-02-28T12:07:16;8.10;1.00
20560;DHT22;10438;51.454;6.718;2023-02-28T12:10:05;7.60;1.00
20560;DHT22;10438;51.454;6.718;2023-02-28T12:18:53;7.30;1.00
20560;DHT22;10438;51.454;6.718;2023-02-28T12:21:37;7.30;1.00
20560;DHT22;10438;51.454;6.718;2023-02-28T12:27:00;6.90;1.00
20560;DHT22;10438;51.454;6.718;2023-02-28T12:32:13;6.70;1.00
20560;DHT22;10438;51.454;6.718;2023-02-28T12:34:50;6.60;1.00
20560;DHT22;10438;51.454;6.718;2023-02-28T12:40:25;6.60;1.00
20560;DHT22;10438;51.454;6.718;2023-02-28T12:43:04;6.70;1.00
20560;DHT22;10438;51.454;6.718;2023-02-28T12:45:41;7.00;1.00
20560;DHT22;10438;51.454;6.718;2023-02-28T12:48:12;7.30;1.00
20560;DHT22;10438;51.454;6.718;2023-02-28T12:50:39;7.20;1.00
20560;DHT22;10438;51.454;6.718;2023-02-28T12:53:09;7.30;1.00
20560;DHT22;10438;51.454;6.718;2023-02-28T12:58:54;6.70;1.00
20560;DHT22;10438;51.454;6.718;2023-02-28T13:09:22;7.10;1.00
20560;DHT22;10438;51.454;6.718;2023-02-28T13:11:51;7.40;1.00
20560;DHT22;10438;51.454;6.718;2023-02-28T13:14:27;7.70;1.00
20560;DHT22;10438;51.454;6.718;2023-02-28T13:17:09;7.80;1.00
20560;DHT22;10438;51.454;6.718;2023-02-28T13:19:42;7.80;1.00
20560;DHT22;10438;51.454;6.718;2023-02-28T13:22:21;7.90;1.00
20560;DHT22;10438;51.454;6.718;2023-02-28T13:25:01;7.90;1.00
20560;DHT22;10438;51.454;6.718;2023-02-28T13:27:38;8.00;1.00
20560;DHT22;10438;51.454;6.718;2023-02-28T13:44:13;8.50;1.00
20560;DHT22;10438;51.454;6.718;2023-02-28T13:49:27;8.10;1.00
20560;DHT22;10438;51.454;6.718;2023-02-28T13:54:34;8.00;1.00
20560;DHT22;10438;51.454;6.718;2023-02-28T14:05:06;8.80;1.00
20560;DHT22;10438;51.454;6.718;2023-02-28T14:07:50;8.20;1.00
20560;DHT22;10438;51.454;6.718;2023-02-28T14:10:31;8.40;1.00
20560;DHT22;10438;51.454;6.718;2023-02-28T14:15:46;8.50;1.00
20560;DHT22;10438;51.454;6.718;2023-02-28T14:18:28;8.40;1.00
20560;DHT22;10438;51.454;6.718;2023-02-28T14:21:01;8.30;1.00
20560;DHT22;10438;51.454;6.718;2023-02-28T14:26:16;8.40;1.00
20560;DHT22;10438;51.454;6.718;2023-02-28T14:31:40;8.60;1.00
20560;DHT22;10438;51.454;6.718;2023-02-28T14:37:13;7.70;1.00
20560;DHT22;10438;51.454;6.718;2023-02-28T14:39:42;7.80;1.00
20560;DHT22;10438;51.454;6.718;2023-02-28T14:42:35;7.90;1.00
20560;DHT22;10438;51.454;6.718;2023-02-28T14:45:02;7.90;1.00
20560;DHT22;10438;51.454;6.718;2023-02-28T14:47:31;7.70;1.00
20560;DHT22;10438;51.454;6.718;2023-02-28T14:49:58;7.60;1.00
20560;DHT22;10438;51.454;6.718;2023-02-28T14:52:27;7.30;1.00
20560;DHT22;10438;51.454;6.718;2023-02-28T14:54:55;7.10;1.00
20560;DHT22;10438;51.454;6.718;2023-02-28T14:57:26;7.20;1.00
20560;DHT22;10438;51.454;6.718;2023-02-28T15:00:12;7.20;1.00
20560;DHT22;10438;51.454;6.718;2023-02-28T15:02:39;7.00;1.00
20560;DHT22;10438;51.454;6.718;2023-02-28T15:07:47;7.20;1.00
20560;DHT22;10438;51.454;6.718;2023-02-28T15:10:26;7.40;1.00
20560;DHT22;10438;51.454;6.718;2023-02-28T15:12:55;7.30;1.00
20560;DHT22;10438;51.454;6.718;2023-02-28T15:15:22;7.10;1.00
20560;DHT22;10438;51.454;6.718;2023-02-28T15:17:53;7.20;1.00
20560;DHT22;10438;51.454;6.718;2023-02-28T15:20:21;7.30;1.00
20560;DHT22;10438;51.454;6.718;2023-02-28T15:22:50;7.70;1.00
20560;DHT22;10438;51.454;6.718;2023-02-28T15:25:20;8.00;1.00
20560;DHT22;10438;51.454;6.718;2023-02-28T15:27:52;8.10;1.00
20560;DHT22;10438;51.454;6.718;2023-02-28T15:30:26;8.10;1.00
20560;DHT22;10438;51.454;6.718;2023-02-28T15:35:41;7.50;1.00
20560;DHT22;10438;51.454;6.718;2023-02-28T15:38:26;6.90;1.00
20560;DHT22;10438;51.454;6.718;2023-02-28T15:40:54;6.40;1.00
20560;DHT22;10438;51.454;6.718;2023-02-28T15:43:34;6.10;1.00
20560;DHT22;10438;51.454;6.718;2023-02-28T15:46:01;6.10;1.00
20560;DHT22;10438;51.454;6.718;2023-02-28T15:48:28;6.20;1.00
20560;DHT22;10438;51.454;6.718;2023-02-28T15:51:18;6.00;1.00
20560;DHT22;10438;51.454;6.718;2023-02-28T15:53:51;6.10;1.00
20560;DHT22;10438;51.454;6.718;2023-02-28T15:56:43;6.10;1.00
20560;DHT22;10438;51.454;6.718;2023-02-28T15:59:18;6.00;1.00
20560;DHT22;10438;51.454;6.718;2023-02-28T16:01:45;5.90;1.00
20560;DHT22;10438;51.454;6.718;2023-02-28T16:04:19;5.80;1.00
20560;DHT22;10438;51.454;6.718;2023-02-28T16:06:46;5.60;1.00
20560;DHT22;10438;51.454;6.718;2023-02-28T16:09:16;5.60;1.00
20560;DHT22;10438;51.454;6.718;2023-02-28T16:11:47;5.50;1.00
20560;DHT22;10438;51.454;6.718;2023-02-28T16:14:33;5.50;1.00
20560;DHT22;10438;51.454;6.718;2023-02-28T16:17:05;5.50;1.00
20560;DHT22;10438;51.454;6.718;2023-02-28T16:19:32;5.50;1.00
20560;DHT22;10438;51.454;6.718;2023-02-28T16:21:57;5.50;1.00
20560;DHT22;10438;51.454;6.718;2023-02-28T16:24:23;5.50;1.00
20560;DHT22;10438;51.454;6.718;2023-02-28T16:26:51;5.40;1.00
20560;DHT22;10438;51.454;6.718;2023-02-28T16:29:29;5.40;1.00
20560;DHT22;10438;51.454;6.718;2023-02-28T16:31:56;5.30;1.00
20560;DHT22;10438;51.454;6.718;2023-02-28T16:34:24;5.30;1.00
20560;DHT22;10438;51.454;6.718;2023-02-28T16:36:49;5.20;1.00
20560;DHT22;10438;51.454;6.718;2023-02-28T16:39:15;5.20;1.00
20560;DHT22;10438;51.454;6.718;2023-02-28T16:41:45;5.10;1.00
20560;DHT22;10438;51.454;6.718;2023-02-28T16:44:15;5.20;1.00
20560;DHT22;10438;51.454;6.718;2023-02-28T16:46:42;5.10;1.00
20560;DHT22;10438;51.454;6.718;2023-02-28T16:49:12;5.10;1.00
20560;DHT22;10438;51.454;6.718;2023-02-28T16:51:38;5.10;1.00
20560;DHT22;10438;51.454;6.718;2023-02-28T16:54:04;5.10;1.00
20560;DHT22;10438;51.454;6.718;2023-02-28T16:56:29;5.00;1.00
20560;DHT22;10438;51.454;6.718;2023-02-28T16:58:59;5.00;1.00
20560;DHT22;10438;51.454;6.718;2023-02-28T17:01:25;5.00;1.00
20560;DHT22;10438;51.454;6.718;2023-02-28T17:03:52;5.00;1.00
20560;DHT22;10438;51.454;6.718;2023-02-28T17:06:25;4.90;1.00
20560;DHT22;10438;51.454;6.718;2023-02-28T17:08:53;4.90;1.00
20560;DHT22;10438;51.454;6.718;2023-02-28T17:11:19;4.90;1.00
20560;DHT22;10438;51.454;6.718;2023-02-28T17:13:45;4.90;1.00
20560;DHT22;10438;51.454;6.718;2023-02-28T17:16:25;4.80;1.00
20560;DHT22;10438;51.454;6.718;2023-02-28T17:18:58;4.80;1.00
20560;DHT22;10438;51.454;6.718;2023-02-28T17:21:24;4.80;2.80
20560;DHT22;10438;51.454;6.718;2023-02-28T17:23:49;4.80;3.60
20560;DHT22;10438;51.454;6.718;2023-02-28T17:26:17;4.70;4.00
20560;DHT22;10438;51.454;6.718;2023-02-28T17:28:45;4.70;6.60
20560;DHT22;10438;51.454;6.718;2023-02-28T17:31:11;4.70;6.20
20560;DHT22;10438;51.454;6.718;2023-02-28T17:33:37;4.70;6.60
20560;DHT22;10438;51.454;6.718;2023-02-28T17:36:02;4.60;9.70
20560;DHT22;10438;51.454;6.718;2023-02-28T17:38:28;4.60;11.70
20560;DHT22;10438;51.454;6.718;2023-02-28T17:40:54;4.50;12.00
20560;DHT22;10438;51.454;6.718;2023-02-28T17:43:26;4.50;10.90
20560;DHT22;10438;51.454;6.718;2023-02-28T17:45:52;4.50;11.10
20560;DHT22;10438;51.454;6.718;2023-02-28T17:48:18;4.50;13.30
20560;DHT22;10438;51.454;6.718;2023-02-28T17:50:43;4.50;15.40
20560;DHT22;10438;51.454;6.718;2023-02-28T17:53:09;4.40;15.00
20560;DHT22;10438;51.454;6.718;2023-02-28T17:55:35;4.40;17.40
20560;DHT22;10438;51.454;6.718;2023-02-28T17:58:00;4.40;17.70
20560;DHT22;10438;51.454;6.718;2023-02-28T18:00:26;4.40;18.30
20560;DHT22;10438;51.454;6.718;2023-02-28T18:02:52;4.30;20.90
20560;DHT22;10438;51.454;6.718;2023-02-28T18:05:17;4.30;23.40
20560;DHT22;10438;51.454;6.718;2023-02-28T18:07:43;4.20;21.70
20560;DHT22;10438;51.454;6.718;2023-02-28T18:10:15;4.20;23.10
20560;DHT22;10438;51.454;6.718;2023-02-28T18:12:50;4.20;25.60